Time;durP1;ratioP1;P1;durP2;ratioP2;P2;SDS_P1;SDS_P2;PMS_P1;PMS_P2;Temp;Humidity;BMP_temperature;BMP_pressure;BME280_temperature;BME280_humidity;BME280_pressure;Samples;Min_cycle;Max_cycle;Signal;HPM_P1;HPM_P2
2023/03/28 00:02:19;;;;;;;3.72;0.80;;;2.40;1.00;;;;;;4892756;29;20281;-84
2023/03/28 00:04:49;;;;;;;3.65;0.98;;;2.30;1.00;;;;;;4896050;29;20243;-86
2023/03/28 00:07:16;;;;;;;3.70;0.77;;;2.10;1.00;;;;;;4893334;29;20647;-85
2023/03/28 00:09:45;;;;;;;3.20;0.60;;;2.00;1.00;;;;;;4890824;29;20238;-83
2023/03/28 00:12:12;;;;;;;3.33;0.80;;;1.90;1.00;;;;;;4894957;29;20247;-85
2023/03/28 00:14:47;;;;;;;3.97;1.20;;;1.90;1.00;;;;;;4893705;29;20239;-84
2023/03/28 00:17:16;;;;;;;3.35;0.80;;;1.70;1.00;;;;;;4897386;29;20243;-84
2023/03/28 00:19:45;;;;;;;3.50;0.73;;;1.60;1.00;;;;;;4904504;29;21048;-83
2023/03/28 00:22:14;;;;;;;4.60;1.00;;;1.60;1.00;;;;;;4900299;29;20299;-85
2023/03/28 00:24:43;;;;;;;3.40;0.70;;;1.50;1.00;;;;;;4897508;29;20279;-84
2023/03/28 00:27:11;;;;;;;3.67;0.88;;;1.50;1.00;;;;;;4896251;29;20231;-85
2023/03/28 00:29:40;;;;;;;3.83;1.00;;;1.40;1.00;;;;;;4894159;29;20291;-84
2023/03/28 00:32:10;;;;;;;4.40;1.10;;;1.40;1.00;;;;;;4893647;29;20243;-83
2023/03/28 00:34:38;;;;;;;3.50;1.02;;;1.30;1.00;;;;;;4932394;29;20249;-85
2023/03/28 00:37:05;;;;;;;4.43;0.95;;;1.30;1.00;;;;;;4936407;28;20250;-84
2023/03/28 00:39:33;;;;;;;3.60;0.80;;;1.30;1.00;;;;;;4933589;28;20273;-84
2023/03/28 00:42:02;;;;;;;4.70;1.10;;;1.20;1.00;;;;;;4930196;28;20306;-85
2023/03/28 00:44:56;;;;;;;5.35;1.13;;;1.20;1.00;;;;;;4917001;29;20253;-85
2023/03/28 00:47:45;;;;;;;4.88;1.35;;;1.30;1.00;;;;;;4919097;29;20294;-86
2023/03/28 00:50:21;;;;;;;3.70;0.90;;;1.30;1.00;;;;;;4922009;29;20639;-85
2023/03/28 00:52:53;;;;;;;4.20;1.25;;;1.30;1.00;;;;;;4924285;29;20244;-85
2023/03/28 00:55:26;;;;;;;5.65;1.33;;;1.30;1.00;;;;;;4928365;29;20253;-85
2023/03/28 00:57:54;;;;;;;6.28;1.30;;;1.40;1.00;;;;;;4931166;29;20245;-85
2023/03/28 01:00:24;;;;;;;6.43;1.15;;;1.30;1.00;;;;;;4930473;28;20234;-86
2023/03/28 01:02:57;;;;;;;4.50;1.20;;;1.30;1.00;;;;;;4924554;29;20267;-85
2023/03/28 01:05:27;;;;;;;6.15;1.13;;;1.40;1.00;;;;;;4924215;29;20970;-86
2023/03/28 01:07:58;;;;;;;9.73;1.38;;;1.40;1.00;;;;;;4925738;28;20345;-85
2023/03/28 01:10:26;;;;;;;5.53;1.10;;;1.40;1.00;;;;;;4929283;28;20242;-86
2023/03/28 01:12:56;;;;;;;5.15;1.20;;;1.40;1.00;;;;;;4929082;28;20250;-85
2023/03/28 01:15:25;;;;;;;4.22;1.40;;;1.40;1.00;;;;;;4925113;29;20324;-86
2023/03/28 01:17:53;;;;;;;5.32;1.10;;;1.40;1.00;;;;;;4933625;28;20241;-85
2023/03/28 01:20:34;;;;;;;3.40;0.60;;;1.40;1.00;;;;;;4928834;29;20226;-86
2023/03/28 01:23:40;;;;;;;3.92;0.80;;;1.40;1.00;;;;;;4921641;28;20245;-86
2023/03/28 01:26:32;;;;;;;5.80;1.52;;;1.40;1.00;;;;;;4921924;29;20246;-84
2023/03/28 01:29:39;;;;;;;4.88;1.10;;;1.40;1.00;;;;;;4922597;29;20242;-85
2023/03/28 01:32:31;;;;;;;4.00;0.90;;;1.40;1.00;;;;;;4925975;28;20245;-85
2023/03/28 01:35:35;;;;;;;6.57;1.17;;;1.40;1.00;;;;;;4927438;29;20289;-84
2023/03/28 01:38:13;;;;;;;4.15;1.05;;;1.40;1.00;;;;;;4909982;28;20262;-85
2023/03/28 01:40:54;;;;;;;3.92;0.90;;;1.40;1.00;;;;;;4927112;29;20330;-84
2023/03/28 01:43:34;;;;;;;5.05;1.25;;;1.40;1.00;;;;;;4930147;28;20225;-86
2023/03/28 01:46:07;;;;;;;3.90;1.10;;;1.50;1.00;;;;;;4926142;28;21058;-85
2023/03/28 01:48:41;;;;;;;3.50;0.90;;;1.60;1.00;;;;;;4925491;29;20253;-85
2023/03/28 01:51:16;;;;;;;5.88;2.08;;;1.60;1.00;;;;;;4932519;29;20225;-84
2023/03/28 01:53:55;;;;;;;4.20;1.13;;;1.70;1.00;;;;;;4930184;28;20236;-85
2023/03/28 01:56:30;;;;;;;4.35;0.98;;;1.70;1.00;;;;;;4931114;28;20297;-85
2023/03/28 01:59:06;;;;;;;9.75;1.15;;;1.80;1.00;;;;;;4920702;28;20238;-84
2023/03/28 02:01:40;;;;;;;3.60;0.80;;;1.80;1.00;;;;;;4915283;29;20272;-81
2023/03/28 02:04:11;;;;;;;6.50;1.50;;;1.90;1.00;;;;;;4913329;29;20237;-81
2023/03/28 02:06:45;;;;;;;4.90;1.33;;;1.90;1.00;;;;;;4915719;29;20238;-82
2023/03/28 02:09:16;;;;;;;4.43;1.00;;;2.00;1.00;;;;;;4914057;29;20237;-82
2023/03/28 02:11:46;;;;;;;4.65;1.40;;;2.00;1.00;;;;;;4914024;29;20238;-81
2023/03/28 02:14:18;;;;;;;4.20;1.02;;;2.00;1.00;;;;;;4912254;29;20249;-81
2023/03/28 02:16:48;;;;;;;5.25;1.20;;;2.00;1.00;;;;;;4914754;29;21050;-81
2023/03/28 02:19:19;;;;;;;5.03;1.20;;;1.80;1.00;;;;;;4918713;29;20250;-80
2023/03/28 02:21:53;;;;;;;9.18;1.65;;;1.70;1.00;;;;;;4915445;29;20327;-79
2023/03/28 02:24:22;;;;;;;4.72;1.20;;;1.60;1.00;;;;;;4913484;29;20276;-81
2023/03/28 02:26:50;;;;;;;5.13;1.80;;;1.50;1.00;;;;;;4917837;29;20245;-82
2023/03/28 02:29:17;;;;;;;4.80;1.30;;;1.40;1.00;;;;;;4916930;28;20269;-82
2023/03/28 02:31:46;;;;;;;4.10;1.42;;;1.40;1.00;;;;;;4911068;29;20218;-83
2023/03/28 02:34:13;;;;;;;6.40;1.52;;;1.30;1.00;;;;;;4919802;29;20301;-83
2023/03/28 02:36:48;;;;;;;5.65;1.40;;;1.30;1.00;;;;;;4921271;29;20278;-84
2023/03/28 02:39:45;;;;;;;5.35;1.42;;;1.30;1.00;;;;;;4920513;28;20253;-84
2023/03/28 02:42:39;;;;;;;5.20;1.27;;;1.30;1.00;;;;;;4915033;29;20266;-81
2023/03/28 02:45:19;;;;;;;5.97;1.48;;;1.30;1.00;;;;;;4918207;29;20284;-83
2023/03/28 02:47:57;;;;;;;4.82;1.45;;;1.30;1.00;;;;;;4918216;29;20334;-82
2023/03/28 02:50:32;;;;;;;7.05;1.67;;;1.20;1.00;;;;;;4904508;29;20238;-82
2023/03/28 02:53:05;;;;;;;6.65;1.50;;;1.20;1.00;;;;;;4921606;29;20269;-81
2023/03/28 02:55:40;;;;;;;5.03;1.40;;;1.20;1.00;;;;;;4905227;29;21023;-82
2023/03/28 02:58:10;;;;;;;5.55;2.03;;;1.20;1.00;;;;;;4922002;29;21891;-83
2023/03/28 03:00:39;;;;;;;4.75;1.30;;;1.20;1.00;;;;;;4920837;28;20242;-83
2023/03/28 03:03:12;;;;;;;4.30;1.48;;;1.30;1.00;;;;;;4920332;29;20763;-83
2023/03/28 03:05:40;;;;;;;4.38;1.42;;;1.30;1.00;;;;;;4925912;29;21015;-82
2023/03/28 03:08:07;;;;;;;5.88;1.52;;;1.40;1.00;;;;;;4919424;29;20233;-83
2023/03/28 03:10:37;;;;;;;5.35;1.95;;;1.40;1.00;;;;;;4927355;29;20237;-83
2023/03/28 03:13:04;;;;;;;4.78;1.48;;;1.50;1.00;;;;;;4923696;28;20326;-84
2023/03/28 03:15:34;;;;;;;6.75;1.98;;;1.60;1.00;;;;;;4920830;29;20335;-82
2023/03/28 03:18:01;;;;;;;5.78;2.05;;;1.60;1.00;;;;;;4916330;29;20246;-82
2023/03/28 03:20:32;;;;;;;4.32;1.63;;;1.70;1.00;;;;;;4917867;29;20261;-83
2023/03/28 03:23:02;;;;;;;4.57;1.50;;;1.80;1.00;;;;;;4918906;29;20313;-83
2023/03/28 03:25:30;;;;;;;4.93;1.48;;;1.80;1.00;;;;;;4920715;29;20238;-82
2023/03/28 03:27:58;;;;;;;5.50;1.48;;;1.80;1.00;;;;;;4904852;29;20238;-83
2023/03/28 03:30:25;;;;;;;4.65;1.38;;;1.90;1.00;;;;;;4923265;29;21255;-84
2023/03/28 03:32:54;;;;;;;5.82;1.40;;;1.90;1.00;;;;;;4917365;29;21156;-85
2023/03/28 03:35:21;;;;;;;5.57;1.98;;;1.90;1.00;;;;;;4920294;29;21075;-81
2023/03/28 03:37:49;;;;;;;5.00;1.52;;;1.80;1.00;;;;;;4917802;29;20242;-82
2023/03/28 03:40:17;;;;;;;5.57;2.25;;;1.80;1.00;;;;;;4916788;29;20246;-82
2023/03/28 03:42:44;;;;;;;5.28;1.95;;;1.60;1.00;;;;;;4917422;29;20248;-83
2023/03/28 03:45:15;;;;;;;4.35;1.60;;;1.60;1.00;;;;;;4923290;28;20246;-85
2023/03/28 03:47:44;;;;;;;4.88;1.98;;;1.60;1.00;;;;;;4930119;29;20238;-84
2023/03/28 03:50:12;;;;;;;5.57;2.55;;;1.50;1.00;;;;;;4925743;28;20241;-83
2023/03/28 03:52:40;;;;;;;7.00;1.90;;;1.60;1.00;;;;;;4924100;29;22201;-83
2023/03/28 03:55:08;;;;;;;6.45;2.53;;;1.60;1.00;;;;;;4921391;29;20246;-83
2023/03/28 03:57:35;;;;;;;6.28;2.55;;;1.60;1.00;;;;;;4923248;28;20238;-83
2023/03/28 04:00:10;;;;;;;5.32;1.90;;;1.60;1.00;;;;;;4913109;29;20275;-83
2023/03/28 04:02:40;;;;;;;5.55;2.28;;;1.50;1.00;;;;;;4918812;29;20233;-82
2023/03/28 04:05:08;;;;;;;7.40;2.30;;;1.50;1.00;;;;;;4919361;29;20230;-83
2023/03/28 04:07:36;;;;;;;6.03;2.53;;;1.50;1.00;;;;;;4918948;29;20361;-83
2023/03/28 04:10:03;;;;;;;7.78;2.60;;;1.50;1.00;;;;;;4918532;29;20310;-85
2023/03/28 04:12:30;;;;;;;5.45;2.95;;;1.50;1.00;;;;;;4916278;28;20242;-85
2023/03/28 04:14:57;;;;;;;5.88;1.80;;;1.40;1.00;;;;;;4930059;28;20264;-84
2023/03/28 04:17:28;;;;;;;7.82;1.77;;;1.50;1.00;;;;;;4922877;29;20242;-84
2023/03/28 04:20:11;;;;;;;8.20;4.57;;;1.40;1.00;;;;;;4928910;28;20730;-85
2023/03/28 04:22:41;;;;;;;6.75;2.38;;;1.40;1.00;;;;;;4928326;29;20394;-87
2023/03/28 04:25:19;;;;;;;7.05;2.58;;;1.40;1.00;;;;;;4933242;28;20230;-88
2023/03/28 04:31:20;;;;;;;6.72;2.30;;;1.30;1.00;;;;;;4930942;28;20242;-84
2023/03/28 05:19:51;;;;;;;7.03;3.15;;;1.60;1.00;;;;;;1376153;26;20229;-87
2023/03/28 05:22:21;;;;;;;6.68;3.28;;;1.60;1.00;;;;;;4935107;28;20269;-86
2023/03/28 05:24:49;;;;;;;5.88;1.80;;;1.70;1.00;;;;;;4928564;28;20301;-86
2023/03/28 05:27:16;;;;;;;7.97;2.53;;;1.80;1.00;;;;;;4938863;28;20231;-87
2023/03/28 05:34:56;;;;;;;6.10;1.80;;;1.90;1.00;;;;;;5433811;23;20248;-85
2023/03/28 05:37:25;;;;;;;6.80;2.63;;;1.90;1.00;;;;;;4938500;28;20260;-86
2023/03/28 05:39:52;;;;;;;6.80;2.28;;;1.80;1.00;;;;;;4947567;28;20242;-86
2023/03/28 05:42:33;;;;;;;7.60;2.15;;;1.80;1.00;;;;;;4945852;28;20225;-86
2023/03/28 05:45:01;;;;;;;6.97;2.20;;;1.80;1.00;;;;;;4942496;28;20964;-83
2023/03/28 05:47:32;;;;;;;6.28;2.40;;;1.60;1.00;;;;;;4934475;28;20301;-85
2023/03/28 05:50:01;;;;;;;7.53;2.17;;;1.60;1.00;;;;;;4927936;28;20235;-86
2023/03/28 05:55:47;;;;;;;8.35;2.60;;;1.60;1.00;;;;;;4933060;28;20256;-86
2023/03/28 06:03:24;;;;;;;5.85;1.95;;;1.60;1.00;;;;;;5881461;23;20208;-82
2023/03/28 06:05:56;;;;;;;6.78;2.65;;;1.70;1.00;;;;;;4951690;28;20229;-86
2023/03/28 06:08:26;;;;;;;5.43;1.70;;;1.70;1.00;;;;;;4964503;28;20383;-84
2023/03/28 06:10:55;;;;;;;4.10;1.40;;;1.70;1.00;;;;;;4943156;28;20236;-88
2023/03/28 06:13:23;;;;;;;8.02;3.10;;;1.70;1.00;;;;;;4963188;28;20237;-88
2023/03/28 06:15:50;;;;;;;5.13;1.83;;;1.80;1.00;;;;;;4970345;28;20225;-85
2023/03/28 06:18:17;;;;;;;5.40;2.15;;;1.80;1.00;;;;;;4959617;28;20233;-86
2023/03/28 06:21:04;;;;;;;5.07;2.53;;;1.80;1.00;;;;;;4958379;28;20340;-89
2023/03/28 06:23:31;;;;;;;6.38;1.83;;;1.90;1.00;;;;;;4965475;28;20244;-83
2023/03/28 06:25:58;;;;;;;4.30;1.70;;;2.00;1.00;;;;;;4958587;28;20240;-84
2023/03/28 06:28:28;;;;;;;6.70;3.60;;;2.00;1.00;;;;;;4958665;28;20232;-83
2023/03/28 06:30:55;;;;;;;5.35;2.28;;;2.10;1.00;;;;;;4950873;28;20231;-86
2023/03/28 06:33:22;;;;;;;7.80;2.17;;;2.10;1.00;;;;;;4954264;28;20287;-83
2023/03/28 06:35:49;;;;;;;5.47;1.85;;;2.10;1.00;;;;;;4959656;28;20245;-85
2023/03/28 06:38:19;;;;;;;5.75;1.90;;;2.10;1.00;;;;;;4958737;28;20252;-85
2023/03/28 06:40:46;;;;;;;4.85;1.70;;;2.10;1.00;;;;;;4954894;28;20245;-82
2023/03/28 06:43:13;;;;;;;5.85;1.80;;;2.10;1.00;;;;;;4944798;28;20245;-83
2023/03/28 06:45:41;;;;;;;8.15;1.92;;;2.20;1.00;;;;;;4956290;28;20272;-83
2023/03/28 06:48:11;;;;;;;6.10;2.03;;;2.30;1.00;;;;;;4952606;28;20244;-82
2023/03/28 06:50:39;;;;;;;6.28;2.78;;;2.40;1.00;;;;;;4955882;28;20235;-86
2023/03/28 06:53:07;;;;;;;5.40;2.00;;;2.50;1.00;;;;;;4942504;28;20245;-83
2023/03/28 06:55:40;;;;;;;6.68;2.25;;;2.60;1.00;;;;;;4958607;28;20339;-83
2023/03/28 06:58:10;;;;;;;6.50;2.20;;;2.50;1.00;;;;;;4957695;28;20259;-86
2023/03/28 07:00:39;;;;;;;6.90;2.70;;;2.50;1.00;;;;;;4964288;28;20244;-84
2023/03/28 07:03:07;;;;;;;4.78;1.70;;;2.60;1.00;;;;;;4961101;28;20296;-85
2023/03/28 07:05:38;;;;;;;4.50;1.70;;;2.70;1.00;;;;;;4954442;28;21070;-81
2023/03/28 07:08:06;;;;;;;6.75;1.70;;;2.80;1.00;;;;;;4955019;28;20328;-84
2023/03/28 07:10:33;;;;;;;6.93;3.38;;;2.80;1.00;;;;;;4963016;28;20248;-86
2023/03/28 07:13:02;;;;;;;6.43;2.25;;;3.00;1.00;;;;;;4963903;28;20349;-82
2023/03/28 07:15:29;;;;;;;5.28;2.20;;;3.10;1.00;;;;;;4960124;28;20245;-83
2023/03/28 07:17:56;;;;;;;4.60;1.90;;;3.10;1.00;;;;;;4961622;28;20324;-82
2023/03/28 07:20:23;;;;;;;4.22;1.50;;;3.10;1.00;;;;;;4961271;28;20252;-81
2023/03/28 07:22:51;;;;;;;4.90;1.80;;;3.20;1.00;;;;;;4960695;28;20320;-80
2023/03/28 07:25:19;;;;;;;5.38;1.95;;;3.20;1.00;;;;;;4958154;28;20269;-85
2023/03/28 07:27:46;;;;;;;5.10;1.85;;;3.30;1.00;;;;;;4962401;28;20241;-86
2023/03/28 07:30:15;;;;;;;6.00;2.10;;;3.40;1.00;;;;;;4968642;28;20241;-84
2023/03/28 07:32:50;;;;;;;5.45;1.65;;;3.50;1.00;;;;;;4969179;28;20212;-82
2023/03/28 07:35:18;;;;;;;6.60;1.58;;;3.60;1.00;;;;;;4963079;28;20330;-83
2023/03/28 07:37:47;;;;;;;7.28;2.15;;;3.60;1.00;;;;;;5006977;23;20241;-83
2023/03/28 07:40:23;;;;;;;5.25;1.65;;;3.60;1.00;;;;;;4942107;28;20222;-85
2023/03/28 07:42:52;;;;;;;7.80;2.67;;;3.70;1.00;;;;;;4933746;28;20237;-82
2023/03/28 07:45:22;;;;;;;5.70;2.20;;;3.80;1.00;;;;;;4930471;28;20233;-80
2023/03/28 07:47:52;;;;;;;4.20;1.80;;;3.80;1.00;;;;;;4938283;28;20234;-82
2023/03/28 07:50:19;;;;;;;5.65;1.42;;;3.80;1.00;;;;;;4932791;28;20289;-82
2023/03/28 07:52:47;;;;;;;6.70;1.98;;;3.80;1.00;;;;;;4934805;28;20241;-83
2023/03/28 07:55:16;;;;;;;4.07;1.38;;;3.90;1.00;;;;;;4941795;28;20748;-82
2023/03/28 07:57:45;;;;;;;5.60;1.73;;;4.00;1.00;;;;;;4935898;28;20252;-83
2023/03/28 08:00:14;;;;;;;5.38;1.88;;;4.00;1.00;;;;;;4943341;28;20230;-82
2023/03/28 08:02:43;;;;;;;7.22;2.22;;;4.20;1.00;;;;;;4935212;28;20293;-83
2023/03/28 08:05:10;;;;;;;5.35;1.48;;;4.30;1.00;;;;;;4936644;28;20903;-80
2023/03/28 08:07:37;;;;;;;6.05;1.58;;;4.40;1.00;;;;;;4934244;28;20256;-80
2023/03/28 08:10:05;;;;;;;6.30;1.38;;;4.50;1.00;;;;;;4942261;28;20237;-82
2023/03/28 08:12:33;;;;;;;4.00;1.80;;;4.60;1.00;;;;;;4934698;28;20234;-84
2023/03/28 08:15:00;;;;;;;6.85;3.10;;;4.80;1.00;;;;;;4938397;28;20249;-83
2023/03/28 08:17:27;;;;;;;4.75;1.52;;;4.80;1.00;;;;;;4930521;28;21097;-79
2023/03/28 08:19:56;;;;;;;4.47;1.23;;;4.80;1.00;;;;;;4936010;28;20252;-82
2023/03/28 08:22:26;;;;;;;5.45;1.55;;;4.80;1.00;;;;;;4934289;28;20265;-81
2023/03/28 08:24:53;;;;;;;6.40;1.45;;;4.80;1.00;;;;;;4932045;28;20237;-82
2023/03/28 08:27:21;;;;;;;3.40;1.30;;;5.00;1.00;;;;;;4936091;28;20253;-81
2023/03/28 08:29:48;;;;;;;6.00;1.50;;;5.10;1.00;;;;;;4930480;28;20240;-80
2023/03/28 08:32:15;;;;;;;4.85;1.80;;;5.10;1.00;;;;;;4930738;28;20322;-81
2023/03/28 08:34:42;;;;;;;7.25;1.70;;;5.10;1.00;;;;;;4931082;28;20225;-81
2023/03/28 08:37:11;;;;;;;3.10;1.10;;;5.20;1.00;;;;;;4934449;28;20235;-82
2023/03/28 08:39:40;;;;;;;4.00;1.95;;;5.40;1.00;;;;;;4929970;28;20317;-81
2023/03/28 08:42:22;;;;;;;4.45;1.30;;;5.50;1.00;;;;;;4928424;28;20247;-81
2023/03/28 08:45:09;;;;;;;4.28;1.40;;;5.60;1.00;;;;;;4926619;28;20241;-82
2023/03/28 08:47:42;;;;;;;7.15;2.22;;;5.70;1.00;;;;;;4930746;28;20226;-82
2023/03/28 08:50:15;;;;;;;3.63;1.27;;;5.80;1.00;;;;;;4929542;28;20244;-80
2023/03/28 08:52:49;;;;;;;3.47;1.15;;;5.80;1.00;;;;;;4928999;28;20233;-82
2023/03/28 08:55:27;;;;;;;4.03;1.30;;;5.90;1.00;;;;;;4933903;28;20306;-83
2023/03/28 08:57:56;;;;;;;3.22;1.90;;;6.10;1.00;;;;;;4911244;29;20243;-83
2023/03/28 09:00:28;;;;;;;2.75;1.13;;;6.30;1.00;;;;;;4931850;28;20238;-83
2023/03/28 09:02:56;;;;;;;2.47;1.30;;;6.60;1.00;;;;;;4930186;28;20886;-82
2023/03/28 09:05:33;;;;;;;4.57;1.73;;;6.60;1.00;;;;;;4934083;28;20239;-85
2023/03/28 09:08:22;;;;;;;5.70;1.73;;;6.50;1.00;;;;;;4927264;28;20241;-83
2023/03/28 09:10:53;;;;;;;6.22;1.88;;;6.70;1.00;;;;;;4925411;28;20239;-85
2023/03/28 09:13:31;;;;;;;7.00;1.67;;;6.90;1.00;;;;;;4919291;28;20283;-83
2023/03/28 09:16:17;;;;;;;3.60;1.20;;;7.20;1.00;;;;;;4933018;28;20260;-85
2023/03/28 09:19:27;;;;;;;2.00;1.10;;;7.40;1.00;;;;;;4920330;28;20299;-83
2023/03/28 09:22:13;;;;;;;4.10;1.07;;;7.60;1.00;;;;;;4901480;28;20473;-84
2023/03/28 09:25:07;;;;;;;4.07;1.67;;;7.50;1.00;;;;;;4935472;28;21411;-85
2023/03/28 09:27:36;;;;;;;4.40;1.27;;;8.10;1.00;;;;;;4937873;28;20471;-84
2023/03/28 09:30:17;;;;;;;2.20;0.83;;;9.00;1.00;;;;;;4925517;28;20458;-85
2023/03/28 09:32:45;;;;;;;2.97;0.80;;;8.80;1.00;;;;;;4932146;28;20850;-82
2023/03/28 09:35:17;;;;;;;5.23;1.70;;;8.40;1.00;;;;;;4936490;28;20481;-86
2023/03/28 09:37:46;;;;;;;4.53;1.37;;;8.20;1.00;;;;;;4916580;28;20480;-83
2023/03/28 09:40:21;;;;;;;3.13;1.47;;;8.30;1.00;;;;;;4904982;29;20463;-87
2023/03/28 09:42:55;;;;;;;2.17;0.93;;;8.20;1.00;;;;;;4896802;29;20419;-88
2023/03/28 09:45:44;;;;;;;3.10;1.30;;;7.80;1.00;;;;;;4914556;29;20481;-89
2023/03/28 09:48:17;;;;;;;2.83;1.20;;;7.80;1.00;;;;;;4912194;28;20304;-82
2023/03/28 09:50:44;;;;;;;8.45;6.03;;;7.60;1.00;;;;;;4909189;29;20341;-84
2023/03/28 09:53:20;;;;;;;3.95;1.33;;;7.70;1.00;;;;;;4916828;29;20246;-82
2023/03/28 09:55:49;;;;;;;3.13;1.20;;;7.60;1.00;;;;;;4910899;29;20291;-82
2023/03/28 09:58:17;;;;;;;1.92;1.00;;;7.50;1.00;;;;;;4906777;29;20512;-81
2023/03/28 10:00:48;;;;;;;3.37;1.60;;;7.50;1.00;;;;;;4910804;29;20369;-82
2023/03/28 10:03:31;;;;;;;2.93;1.53;;;8.40;1.00;;;;;;4908238;29;20466;-82
2023/03/28 10:05:59;;;;;;;3.33;1.30;;;8.70;1.00;;;;;;4911743;29;21096;-80
2023/03/28 10:08:31;;;;;;;2.90;1.60;;;8.70;1.00;;;;;;4905807;29;20580;-80
2023/03/28 10:11:05;;;;;;;3.97;1.57;;;8.70;1.00;;;;;;4901699;29;20507;-82
2023/03/28 10:13:42;;;;;;;3.10;1.00;;;8.10;1.00;;;;;;4913029;29;21179;-83
2023/03/28 10:16:14;;;;;;;5.37;2.00;;;8.50;1.00;;;;;;4908873;29;20459;-85
2023/03/28 10:18:42;;;;;;;3.30;1.13;;;9.30;1.00;;;;;;4911020;29;20473;-86
2023/03/28 10:21:14;;;;;;;3.20;1.17;;;10.10;1.00;;;;;;4912428;29;20463;-85
2023/03/28 10:23:46;;;;;;;4.60;1.20;;;10.20;1.00;;;;;;4914329;29;20463;-85
2023/03/28 10:26:24;;;;;;;3.13;2.00;;;10.00;1.00;;;;;;4915000;29;20474;-85
2023/03/28 10:28:54;;;;;;;4.50;1.83;;;9.60;1.00;;;;;;4915039;28;20458;-87
2023/03/28 10:31:27;;;;;;;2.60;1.50;;;9.30;1.00;;;;;;4912352;29;20788;-86
2023/03/28 10:33:58;;;;;;;2.53;1.20;;;9.60;1.00;;;;;;4910844;29;20469;-84
2023/03/28 10:36:30;;;;;;;3.30;1.40;;;11.00;1.00;;;;;;4908683;29;20483;-85
2023/03/28 10:38:58;;;;;;;3.00;1.00;;;12.90;1.00;;;;;;4919295;28;20460;-85
2023/03/28 10:41:28;;;;;;;2.80;1.70;;;14.40;1.00;;;;;;4929573;28;20490;-85
2023/03/28 10:43:56;;;;;;;2.47;1.50;;;14.00;1.00;;;;;;4924107;28;20460;-84
2023/03/28 10:46:28;;;;;;;2.70;0.90;;;14.20;1.00;;;;;;4928173;28;20449;-86
2023/03/28 10:48:59;;;;;;;2.90;1.10;;;15.30;1.00;;;;;;4929983;28;20470;-85
2023/03/28 10:51:28;;;;;;;2.60;1.40;;;17.00;1.00;;;;;;4929623;28;20493;-84
2023/03/28 10:54:16;;;;;;;1.83;1.00;;;15.80;1.00;;;;;;4923669;28;20563;-82
2023/03/28 10:56:51;;;;;;;3.93;1.00;;;14.70;1.00;;;;;;4926771;28;20448;-85
2023/03/28 10:59:40;;;;;;;2.60;1.10;;;14.60;1.00;;;;;;4930252;28;20425;-84
2023/03/28 11:02:39;;;;;;;2.20;1.30;;;16.20;1.00;;;;;;4939892;28;20429;-85
2023/03/28 11:05:22;;;;;;;2.73;1.30;;;15.80;1.00;;;;;;4937799;28;20432;-85
2023/03/28 11:07:59;;;;;;;3.43;1.13;;;14.30;1.00;;;;;;4933450;28;20475;-84
2023/03/28 11:10:37;;;;;;;2.07;1.00;;;13.20;1.00;;;;;;4931703;28;20458;-85
2023/03/28 11:13:26;;;;;;;3.30;1.90;;;11.90;1.00;;;;;;4934200;28;20510;-84
2023/03/28 11:15:59;;;;;;;1.83;1.10;;;10.80;1.00;;;;;;4927844;28;20474;-84
2023/03/28 11:18:46;;;;;;;2.83;1.33;;;11.00;1.00;;;;;;4943180;28;21811;-83
2023/03/28 11:21:22;;;;;;;2.53;1.40;;;13.60;1.00;;;;;;4943756;28;20471;-89
2023/03/28 11:23:57;;;;;;;5.50;1.57;;;13.30;1.00;;;;;;4945965;28;21272;-85
2023/03/28 11:26:33;;;;;;;3.20;1.40;;;13.20;1.00;;;;;;4930829;28;20455;-89
2023/03/28 11:29:17;;;;;;;3.00;1.20;;;15.00;1.00;;;;;;4913433;28;20485;-86
2023/03/28 11:31:51;;;;;;;3.20;0.97;;;17.20;1.00;;;;;;4939819;28;20458;-84
2023/03/28 11:34:25;;;;;;;2.33;1.00;;;18.40;1.00;;;;;;4943437;28;20599;-86
2023/03/28 11:36:57;;;;;;;2.43;0.90;;;19.30;1.00;;;;;;4931215;28;20490;-87
2023/03/28 11:39:33;;;;;;;4.77;2.50;;;19.90;1.00;;;;;;4925696;28;20514;-85
2023/03/28 11:42:06;;;;;;;4.67;2.43;;;20.90;1.00;;;;;;4934134;28;21012;-85
2023/03/28 11:44:41;;;;;;;2.10;1.20;;;20.60;1.00;;;;;;4930056;28;20482;-83
2023/03/28 11:47:13;;;;;;;4.37;1.47;;;19.70;1.00;;;;;;4925561;28;20483;-86
2023/03/28 11:49:43;;;;;;;1.57;1.00;;;18.70;1.00;;;;;;4935675;28;21281;-84
2023/03/28 11:52:17;;;;;;;2.03;1.00;;;19.80;1.00;;;;;;4922476;28;20468;-80
2023/03/28 11:54:49;;;;;;;3.57;1.27;;;20.50;1.00;;;;;;4929426;28;20449;-80
2023/03/28 11:57:23;;;;;;;1.50;0.80;;;18.60;1.00;;;;;;4934404;28;20458;-83
2023/03/28 12:00:04;;;;;;;2.63;0.97;;;17.10;1.00;;;;;;4930793;28;20454;-81
2023/03/28 12:02:42;;;;;;;2.03;0.83;;;16.90;1.00;;;;;;4932533;28;20458;-83
2023/03/28 12:05:20;;;;;;;2.10;1.00;;;18.10;1.00;;;;;;4931050;28;20480;-84
2023/03/28 12:07:55;;;;;;;2.00;1.00;;;20.10;1.00;;;;;;4913356;28;21163;-88
2023/03/28 12:10:26;;;;;;;2.47;0.93;;;19.00;1.00;;;;;;4937034;28;20574;-87
2023/03/28 12:13:30;;;;;;;3.57;1.17;;;16.50;1.00;;;;;;4930405;28;20590;-89
2023/03/28 12:19:48;;;;;;;9.13;2.90;;;18.00;1.00;;;;;;4916535;29;20495;-87
2023/03/28 12:22:25;;;;;;;2.20;1.27;;;20.60;1.00;;;;;;4905076;29;20506;-84
2023/03/28 12:25:02;;;;;;;4.00;1.20;;;21.70;1.00;;;;;;4931578;28;20587;-84
2023/03/28 12:27:55;;;;;;;3.83;1.30;;;21.30;1.00;;;;;;4935974;28;20462;-84
2023/03/28 12:31:07;;;;;;;2.20;1.07;;;18.00;1.00;;;;;;4936952;28;20426;-87
2023/03/28 12:33:47;;;;;;;2.27;1.10;;;15.00;1.00;;;;;;4939279;28;20505;-85
2023/03/28 12:39:33;;;;;;;2.10;1.37;;;18.20;1.00;;;;;;4945882;28;21300;-89
2023/03/28 12:42:05;;;;;;;2.90;1.20;;;20.10;1.00;;;;;;4947055;28;20480;-88
2023/03/28 12:44:40;;;;;;;1.67;0.87;;;21.30;1.00;;;;;;4949460;28;20460;-88
2023/03/28 12:47:13;;;;;;;1.93;1.17;;;19.20;1.00;;;;;;4949019;28;20631;-87
2023/03/28 12:49:46;;;;;;;1.77;0.80;;;16.80;1.00;;;;;;4950946;28;20598;-86
2023/03/28 12:52:18;;;;;;;3.00;1.23;;;17.50;1.00;;;;;;4942724;28;20417;-90
2023/03/28 12:54:58;;;;;;;1.70;1.00;;;17.70;1.00;;;;;;4949004;28;20719;-90
2023/03/28 12:57:46;;;;;;;4.83;1.50;;;16.80;1.00;;;;;;4935522;28;20474;-82
2023/03/28 13:00:25;;;;;;;2.13;0.83;;;18.70;1.00;;;;;;4925723;28;20496;-82
2023/03/28 13:03:00;;;;;;;4.83;1.20;;;21.10;1.00;;;;;;4935162;28;20468;-83
2023/03/28 13:05:37;;;;;;;3.20;2.13;;;22.00;1.00;;;;;;4934825;28;20511;-83
2023/03/28 13:08:15;;;;;;;3.83;1.17;;;23.30;1.00;;;;;;4931253;28;20441;-83
2023/03/28 13:10:48;;;;;;;2.27;1.17;;;24.50;1.00;;;;;;4934040;28;20473;-83
2023/03/28 13:13:27;;;;;;;4.90;1.40;;;26.10;1.00;;;;;;4931698;28;20495;-82
2023/03/28 13:16:04;;;;;;;3.57;1.37;;;27.30;1.00;;;;;;4930999;28;20492;-85
2023/03/28 13:18:33;;;;;;;6.67;1.70;;;28.40;1.00;;;;;;4936187;28;20536;-83
2023/03/28 13:24:44;;;;;;;2.00;1.33;;;29.20;1.00;;;;;;4927840;28;20436;-85
2023/03/28 13:27:33;;;;;;;2.33;1.00;;;28.00;1.00;;;;;;4916688;28;20443;-85
2023/03/28 13:30:05;;;;;;;2.70;1.10;;;27.40;1.00;;;;;;4924903;28;20488;-87
2023/03/28 13:32:42;;;;;;;1.30;1.00;;;27.40;1.00;;;;;;4930051;28;20610;-88
2023/03/28 13:35:42;;;;;;;1.70;0.80;;;26.10;1.00;;;;;;4923133;28;20422;-84
2023/03/28 13:38:22;;;;;;;2.33;0.90;;;22.80;1.00;;;;;;4933940;28;20440;-84
2023/03/28 13:40:55;;;;;;;2.97;1.47;;;19.00;1.00;;;;;;4938217;28;20422;-84
2023/03/28 13:43:25;;;;;;;1.33;1.10;;;17.00;1.00;;;;;;4927359;28;20463;-81
2023/03/28 13:45:56;;;;;;;1.27;0.90;;;15.40;1.00;;;;;;4926091;28;21176;-82
2023/03/28 13:48:26;;;;;;;2.60;0.87;;;14.00;1.00;;;;;;4931257;28;20488;-84
2023/03/28 13:50:54;;;;;;;1.60;0.90;;;13.00;1.00;;;;;;4932963;28;20978;-80
2023/03/28 13:53:22;;;;;;;4.07;1.37;;;12.20;1.00;;;;;;4914798;28;20552;-83
2023/03/28 13:56:07;;;;;;;1.50;0.90;;;11.80;1.00;;;;;;4930416;28;20450;-81
2023/03/28 13:58:35;;;;;;;2.63;1.20;;;11.30;1.00;;;;;;4935438;28;20509;-80
2023/03/28 14:01:16;;;;;;;5.43;1.40;;;11.00;1.00;;;;;;4932326;28;20489;-82
2023/03/28 14:03:46;;;;;;;2.80;1.30;;;10.90;1.00;;;;;;4912985;28;21428;-81
2023/03/28 14:06:21;;;;;;;1.40;1.10;;;10.60;1.00;;;;;;4928012;28;20411;-85
2023/03/28 14:08:49;;;;;;;2.20;1.00;;;10.40;1.00;;;;;;4930845;28;20506;-82
2023/03/28 14:11:22;;;;;;;1.60;0.80;;;10.40;1.00;;;;;;4917440;28;21154;-83
2023/03/28 14:13:52;;;;;;;2.57;1.07;;;10.40;1.00;;;;;;4930110;28;21065;-84
2023/03/28 14:16:20;;;;;;;2.53;1.00;;;10.40;1.00;;;;;;4937151;28;20447;-83
2023/03/28 14:18:50;;;;;;;1.60;0.90;;;10.40;1.00;;;;;;4931683;28;20481;-83
2023/03/28 14:21:22;;;;;;;3.27;1.27;;;10.30;1.00;;;;;;4931430;28;20507;-82
2023/03/28 14:23:58;;;;;;;2.07;1.20;;;10.00;1.00;;;;;;4931314;28;20481;-80
2023/03/28 14:26:31;;;;;;;1.40;0.80;;;10.00;1.00;;;;;;4927835;28;21214;-80
2023/03/28 14:29:02;;;;;;;2.00;0.80;;;9.90;1.00;;;;;;4922863;28;20561;-82
2023/03/28 14:31:33;;;;;;;4.90;1.60;;;9.70;1.00;;;;;;4933088;28;20885;-82
2023/03/28 14:34:03;;;;;;;4.37;2.70;;;9.60;1.00;;;;;;4931072;28;20561;-81
2023/03/28 14:36:36;;;;;;;2.70;1.07;;;9.70;1.00;;;;;;4938621;28;20489;-83
2023/03/28 14:39:09;;;;;;;4.50;1.43;;;9.70;1.00;;;;;;4934943;28;20479;-84
2023/03/28 14:41:39;;;;;;;2.73;1.23;;;9.80;1.00;;;;;;4935930;28;20469;-84
2023/03/28 14:44:07;;;;;;;2.17;0.93;;;9.80;1.00;;;;;;4940270;28;20437;-81
2023/03/28 14:46:35;;;;;;;1.63;1.00;;;9.80;1.00;;;;;;4928094;28;20437;-82
2023/03/28 14:49:08;;;;;;;3.13;1.10;;;9.70;1.00;;;;;;4942276;28;20513;-84
2023/03/28 14:51:46;;;;;;;5.07;1.80;;;9.60;1.00;;;;;;4925000;29;20506;-84